This is the latest recevied weather packets stored in our database for station/object DK4DAX-2. If no packets are shown the sender has not sent any weather packets the latest 10 day(s).
| Time | Temp. | Humidity | Pressure | Rain* | Wind** | Luminosity | Snow |
|---|---|---|---|---|---|---|---|
| 1777837500 | 17.22° C | 63% | 1004.8 hPa | 0 mm | - | - | - |
| 1777836600 | 17.78° C | 64% | 1004.7 hPa | 0 mm | - | - | - |
| 1777835701 | 17.78° C | 69% | 1004.9 hPa | 0 mm | - | - | - |
| 1777834800 | 17.22° C | 72% | 1004.9 hPa | 0 mm | - | - | - |
| 1777833900 | 17.78° C | 73% | 1004.4 hPa | 0 mm | - | - | - |
| 1777833001 | 17.78° C | 74% | 1004.6 hPa | 0 mm | - | - | - |
| 1777832101 | 17.22° C | 79% | 1004.4 hPa | 0 mm | - | - | - |
| 1777831201 | 17.22° C | 81% | 1004.4 hPa | 0 mm | - | - | - |
| 1777830301 | 17.22° C | 80% | 1004.4 hPa | 0 mm | - | - | - |
| 1777829401 | 17.22° C | 80% | 1004.3 hPa | 0 mm | - | - | - |
| 1777828500 | 17.22° C | 79% | 1004.4 hPa | 0 mm | - | - | - |
| 1777827601 | 17.78° C | 78% | 1004.2 hPa | 0 mm | - | - | - |
| 1777826701 | 17.78° C | 78% | 1004.3 hPa | 0 mm | - | - | - |
| 1777825800 | 17.78° C | 75% | 1004.8 hPa | 0 mm | - | - | - |
| 1777824901 | 18.33° C | 73% | 1004.6 hPa | 0 mm | - | - | - |
| 1777824001 | 18.33° C | 72% | 1004.6 hPa | 0 mm | - | - | - |
| 1777823101 | 18.89° C | 67% | 1004.3 hPa | 0 mm | - | - | - |
| 1777822201 | 18.89° C | 71% | 1004.4 hPa | 0 mm | - | - | - |
| 1777821300 | 18.33° C | 72% | 1004.4 hPa | 0 mm | - | - | - |
| 1777820401 | 18.33° C | 66% | 1004.6 hPa | 0 mm | - | - | - |
| 1777819501 | 19.44° C | 56% | 1004.5 hPa | 0 mm | - | - | - |
| 1777818600 | 20° C | 51% | 1004.1 hPa | 0 mm | - | - | - |
| 1777817700 | 21.11° C | 45% | 1004.3 hPa | 0 mm | - | - | - |
| 1777816801 | 21.11° C | 46% | 1004.3 hPa | 0 mm | - | - | - |
| 1777815901 | 21.11° C | 49% | 1004.4 hPa | 0 mm | - | - | - |
* Rain latest hour (hover to see other rain measurements)
** Current wind speed in m/s (hover to see current wind gust speed)